Time;durP1;ratioP1;P1;durP2;ratioP2;P2;SDS_P1;SDS_P2;PMS_P1;PMS_P2;Temp;Humidity;BMP_temperature;BMP_pressure;BME280_temperature;BME280_humidity;BME280_pressure;Samples;Min_cycle;Max_cycle;Signal;HPM_P1;HPM_P2
2021/09/06 00:00:11;;;;;;;12.07;10.73;;;;;;;;;;5076709;28;20206;-63
2021/09/06 00:02:37;;;;;;;12.23;10.20;;;;;;;;;;5068810;28;20263;-64
2021/09/06 00:05:06;;;;;;;12.37;10.30;;;;;;;;;;5072763;28;20657;-64
2021/09/06 00:07:32;;;;;;;10.70;9.60;;;;;;;;;;5070066;28;20693;-63
2021/09/06 00:10:01;;;;;;;11.93;10.13;;;;;;;;;;5093455;28;20234;-65
2021/09/06 00:12:28;;;;;;;12.47;11.20;;;;;;;;;;5079185;28;20626;-63
2021/09/06 00:14:57;;;;;;;11.90;10.67;;;;;;;;;;5070745;28;20655;-63
2021/09/06 00:17:23;;;;;;;11.50;10.40;;;;;;;;;;5070008;28;20214;-63
2021/09/06 00:19:49;;;;;;;12.03;9.97;;;;;;;;;;5072286;28;20213;-65
2021/09/06 00:22:18;;;;;;;10.80;9.70;;;;;;;;;;5070126;28;20173;-64
2021/09/06 00:24:44;;;;;;;11.77;10.57;;;;;;;;;;5071646;28;20187;-63
2021/09/06 00:27:16;;;;;;;9.77;8.77;;;;;;;;;;5068113;28;20183;-64
2021/09/06 00:29:42;;;;;;;11.20;10.10;;;;;;;;;;5071183;28;20586;-63
2021/09/06 00:32:08;;;;;;;10.23;9.23;;;;;;;;;;5074398;28;20178;-64
2021/09/06 00:34:34;;;;;;;10.83;9.87;;;;;;;;;;5075243;28;20223;-65
2021/09/06 00:37:00;;;;;;;11.67;10.47;;;;;;;;;;5072044;28;20168;-64
2021/09/06 00:39:26;;;;;;;11.67;10.57;;;;;;;;;;5076816;28;20270;-64
2021/09/06 00:41:52;;;;;;;10.13;9.03;;;;;;;;;;5067917;28;20351;-63
2021/09/06 00:44:18;;;;;;;10.83;9.80;;;;;;;;;;5072043;28;20243;-63
2021/09/06 00:46:48;;;;;;;11.13;10.03;;;;;;;;;;5070458;28;20178;-64
2021/09/06 00:49:21;;;;;;;11.53;10.43;;;;;;;;;;5076352;28;20589;-64
2021/09/06 00:51:47;;;;;;;10.43;9.43;;;;;;;;;;5066958;28;20581;-65
2021/09/06 00:54:14;;;;;;;11.10;9.13;;;;;;;;;;5074090;28;20202;-66
2021/09/06 00:56:40;;;;;;;12.03;10.87;;;;;;;;;;5082668;28;20181;-63
2021/09/06 00:59:06;;;;;;;11.27;10.17;;;;;;;;;;5069249;28;20235;-63
2021/09/06 01:01:32;;;;;;;14.03;9.80;;;;;;;;;;5074537;28;20312;-63
2021/09/06 01:03:59;;;;;;;10.67;9.40;;;;;;;;;;5069572;28;20179;-63
2021/09/06 01:06:25;;;;;;;10.60;9.57;;;;;;;;;;5070465;28;20187;-65
2021/09/06 01:08:51;;;;;;;10.70;9.67;;;;;;;;;;5069981;28;20655;-65
2021/09/06 01:11:17;;;;;;;10.23;9.23;;;;;;;;;;5075302;28;20486;-63
2021/09/06 01:13:45;;;;;;;11.20;10.03;;;;;;;;;;5068712;28;20654;-63
2021/09/06 01:16:12;;;;;;;11.03;9.70;;;;;;;;;;5078365;28;20183;-63
2021/09/06 01:18:38;;;;;;;10.57;9.57;;;;;;;;;;5074573;28;20180;-64
2021/09/06 01:21:07;;;;;;;11.03;9.93;;;;;;;;;;5070065;28;20204;-63
2021/09/06 01:23:33;;;;;;;11.23;10.03;;;;;;;;;;5077869;28;20186;-63
2021/09/06 01:25:59;;;;;;;9.80;8.50;;;;;;;;;;5078405;28;20170;-63
2021/09/06 01:28:26;;;;;;;10.40;9.30;;;;;;;;;;5073319;28;20192;-64
2021/09/06 01:30:52;;;;;;;10.40;9.37;;;;;;;;;;5075345;28;20180;-63
2021/09/06 01:33:18;;;;;;;11.23;10.10;;;;;;;;;;5075557;28;20186;-64
2021/09/06 01:35:44;;;;;;;11.30;10.10;;;;;;;;;;5068985;28;20176;-63
2021/09/06 01:38:10;;;;;;;12.63;10.93;;;;;;;;;;5072559;28;20488;-63
2021/09/06 01:40:36;;;;;;;10.90;9.80;;;;;;;;;;5071184;28;20209;-64
2021/09/06 01:43:02;;;;;;;10.10;9.10;;;;;;;;;;5075087;28;20191;-63
2021/09/06 01:45:28;;;;;;;12.27;10.97;;;;;;;;;;5076982;28;20229;-64
2021/09/06 01:47:54;;;;;;;11.30;10.10;;;;;;;;;;5077701;28;20195;-64
2021/09/06 01:50:20;;;;;;;11.10;10.00;;;;;;;;;;5069813;28;20184;-64
2021/09/06 01:52:47;;;;;;;11.57;9.57;;;;;;;;;;5075413;28;20203;-64
2021/09/06 01:55:13;;;;;;;12.37;10.77;;;;;;;;;;5067324;28;20667;-63
2021/09/06 01:57:39;;;;;;;11.07;9.83;;;;;;;;;;5066966;28;20228;-64
2021/09/06 02:00:05;;;;;;;12.20;11.00;;;;;;;;;;5068772;28;20283;-64
2021/09/06 02:02:31;;;;;;;11.13;10.03;;;;;;;;;;5066212;28;20578;-63
2021/09/06 02:05:00;;;;;;;11.03;9.93;;;;;;;;;;5071460;28;20199;-64
2021/09/06 02:07:26;;;;;;;11.57;9.70;;;;;;;;;;5067528;28;20258;-65
2021/09/06 02:09:52;;;;;;;11.00;9.03;;;;;;;;;;5072859;28;20176;-63
2021/09/06 02:12:18;;;;;;;12.53;9.40;;;;;;;;;;5080621;28;20701;-64
2021/09/06 02:14:44;;;;;;;9.67;8.70;;;;;;;;;;5075392;28;20200;-64
2021/09/06 02:17:10;;;;;;;10.53;9.37;;;;;;;;;;5077066;28;20176;-63
2021/09/06 02:19:37;;;;;;;11.20;9.90;;;;;;;;;;5074586;28;20202;-64
2021/09/06 02:22:03;;;;;;;13.43;10.40;;;;;;;;;;5067368;28;20172;-63
2021/09/06 02:24:29;;;;;;;9.67;8.73;;;;;;;;;;5074596;28;20172;-63
2021/09/06 02:26:58;;;;;;;10.63;9.57;;;;;;;;;;5057687;28;20596;-63
2021/09/06 02:29:24;;;;;;;10.60;9.60;;;;;;;;;;5070226;28;20180;-63
2021/09/06 02:31:50;;;;;;;12.70;10.63;;;;;;;;;;5075713;28;20229;-63
2021/09/06 02:34:17;;;;;;;12.03;10.00;;;;;;;;;;5072783;28;20638;-63
2021/09/06 02:36:43;;;;;;;10.77;9.43;;;;;;;;;;5068774;28;20180;-63
2021/09/06 02:39:09;;;;;;;11.17;10.00;;;;;;;;;;5068739;28;20195;-63
2021/09/06 02:41:35;;;;;;;11.40;9.73;;;;;;;;;;5071054;28;20701;-63
2021/09/06 02:44:01;;;;;;;11.50;10.30;;;;;;;;;;5073354;28;20612;-63
2021/09/06 02:46:27;;;;;;;11.17;9.80;;;;;;;;;;5071697;28;20172;-63
2021/09/06 02:48:53;;;;;;;11.20;9.07;;;;;;;;;;5071460;28;20180;-63
2021/09/06 02:51:19;;;;;;;11.53;9.17;;;;;;;;;;5076918;28;20245;-62
2021/09/06 02:53:48;;;;;;;10.70;9.70;;;;;;;;;;5072422;28;20215;-63
2021/09/06 02:56:17;;;;;;;11.20;9.70;;;;;;;;;;5074774;28;20299;-63
2021/09/06 02:58:44;;;;;;;10.73;9.33;;;;;;;;;;5076969;28;20219;-64
2021/09/06 03:01:10;;;;;;;12.57;11.50;;;;;;;;;;5076490;28;20643;-63
2021/09/06 03:03:36;;;;;;;9.97;8.83;;;;;;;;;;5071902;28;20181;-63
2021/09/06 03:06:02;;;;;;;12.70;9.70;;;;;;;;;;5076187;28;20180;-63
2021/09/06 03:08:28;;;;;;;11.63;9.87;;;;;;;;;;5076252;28;21244;-63
2021/09/06 03:10:54;;;;;;;10.73;9.20;;;;;;;;;;5080325;28;20188;-61
2021/09/06 03:13:20;;;;;;;11.47;10.03;;;;;;;;;;5071621;28;20491;-61
2021/09/06 03:15:46;;;;;;;10.00;9.00;;;;;;;;;;5075857;28;20211;-61
2021/09/06 03:18:12;;;;;;;14.47;13.13;;;;;;;;;;5086334;28;20691;-61
2021/09/06 03:20:38;;;;;;;12.93;10.27;;;;;;;;;;5079418;28;20649;-61
2021/09/06 03:23:04;;;;;;;11.23;10.13;;;;;;;;;;5071925;28;20260;-61
2021/09/06 03:25:31;;;;;;;10.03;9.13;;;;;;;;;;5076807;28;20173;-61
2021/09/06 03:28:00;;;;;;;11.33;10.13;;;;;;;;;;5080625;28;20259;-61
2021/09/06 03:30:26;;;;;;;10.17;8.73;;;;;;;;;;5080872;28;20184;-61
2021/09/06 03:32:52;;;;;;;9.63;8.63;;;;;;;;;;5069543;28;20184;-61
2021/09/06 03:35:18;;;;;;;10.03;8.90;;;;;;;;;;5075988;28;20195;-61
2021/09/06 03:37:44;;;;;;;10.20;9.20;;;;;;;;;;5072656;28;20176;-61
2021/09/06 03:40:10;;;;;;;12.47;11.37;;;;;;;;;;5078903;28;20299;-61
2021/09/06 03:42:37;;;;;;;10.53;9.30;;;;;;;;;;5069661;28;20175;-60
2021/09/06 03:45:03;;;;;;;10.60;9.20;;;;;;;;;;5076450;28;20180;-62
2021/09/06 03:47:29;;;;;;;9.60;8.60;;;;;;;;;;5070090;28;20177;-61
2021/09/06 03:49:55;;;;;;;10.20;9.20;;;;;;;;;;5077644;28;20205;-61
2021/09/06 03:52:21;;;;;;;11.17;9.33;;;;;;;;;;5070010;28;20188;-60
2021/09/06 03:54:50;;;;;;;10.30;9.20;;;;;;;;;;5073606;28;20311;-60
2021/09/06 03:57:16;;;;;;;9.97;8.50;;;;;;;;;;5070221;28;20616;-61
2021/09/06 03:59:42;;;;;;;11.00;9.60;;;;;;;;;;5080904;28;20576;-61
2021/09/06 04:02:08;;;;;;;11.30;10.20;;;;;;;;;;5071831;28;20176;-62
2021/09/06 04:04:34;;;;;;;9.67;8.67;;;;;;;;;;5072234;28;20724;-62
2021/09/06 04:07:00;;;;;;;10.27;9.23;;;;;;;;;;5076020;28;20661;-61
2021/09/06 04:09:28;;;;;;;10.60;9.57;;;;;;;;;;5072088;28;20499;-60
2021/09/06 04:11:54;;;;;;;11.03;9.37;;;;;;;;;;5070853;28;20176;-61
2021/09/06 04:14:22;;;;;;;11.00;9.30;;;;;;;;;;5071218;28;20219;-61
2021/09/06 04:16:48;;;;;;;9.43;8.53;;;;;;;;;;5069139;28;20207;-64
2021/09/06 04:19:14;;;;;;;10.83;9.73;;;;;;;;;;5078948;28;20179;-61
2021/09/06 04:21:40;;;;;;;11.33;9.50;;;;;;;;;;5071464;28;20279;-61
2021/09/06 04:24:09;;;;;;;10.73;9.63;;;;;;;;;;5076046;28;20179;-61
2021/09/06 04:26:35;;;;;;;10.23;8.73;;;;;;;;;;5078065;28;20180;-61
2021/09/06 04:29:01;;;;;;;10.40;9.40;;;;;;;;;;5074008;28;20195;-62
2021/09/06 04:31:27;;;;;;;9.80;8.90;;;;;;;;;;5076713;28;20176;-63
2021/09/06 04:33:53;;;;;;;12.43;11.27;;;;;;;;;;5071255;28;20461;-62
2021/09/06 04:36:19;;;;;;;12.83;11.63;;;;;;;;;;5071051;28;20188;-63
2021/09/06 04:38:45;;;;;;;10.83;9.73;;;;;;;;;;5067625;28;20591;-63
2021/09/06 04:41:11;;;;;;;11.10;9.97;;;;;;;;;;5069121;28;20203;-63
2021/09/06 04:43:37;;;;;;;10.70;9.60;;;;;;;;;;5072941;28;20172;-63
2021/09/06 04:46:04;;;;;;;10.57;9.37;;;;;;;;;;5074333;28;20257;-64
2021/09/06 04:48:30;;;;;;;10.57;9.47;;;;;;;;;;5070333;28;20333;-63
2021/09/06 04:50:56;;;;;;;10.27;9.17;;;;;;;;;;5071269;28;20188;-63
2021/09/06 04:53:22;;;;;;;10.10;9.07;;;;;;;;;;5069546;28;20246;-63
2021/09/06 04:55:50;;;;;;;9.47;8.47;;;;;;;;;;5071433;28;20211;-64
2021/09/06 04:58:16;;;;;;;9.07;8.17;;;;;;;;;;5072237;28;20589;-64
2021/09/06 05:00:44;;;;;;;11.13;10.00;;;;;;;;;;5072163;28;20212;-62
2021/09/06 05:03:10;;;;;;;10.57;9.07;;;;;;;;;;5080106;28;20180;-63
2021/09/06 05:05:36;;;;;;;10.23;9.00;;;;;;;;;;5072701;28;20176;-63
2021/09/06 05:08:02;;;;;;;10.33;9.00;;;;;;;;;;5068777;28;20180;-63
2021/09/06 05:10:28;;;;;;;11.80;9.60;;;;;;;;;;5079387;28;20548;-62
2021/09/06 05:13:08;;;;;;;10.60;9.50;;;;;;;;;;5072181;28;20466;-63
2021/09/06 05:15:34;;;;;;;10.47;9.33;;;;;;;;;;5075826;28;20558;-63
2021/09/06 05:18:00;;;;;;;9.53;8.53;;;;;;;;;;5074559;28;20187;-62
2021/09/06 05:20:26;;;;;;;11.97;9.47;;;;;;;;;;5077812;28;20204;-62
2021/09/06 05:22:52;;;;;;;10.77;8.90;;;;;;;;;;5067183;28;20179;-62
2021/09/06 05:25:18;;;;;;;11.13;9.73;;;;;;;;;;5072821;28;20199;-62
2021/09/06 05:27:45;;;;;;;10.23;9.10;;;;;;;;;;5076440;28;20183;-64
2021/09/06 05:30:11;;;;;;;11.60;8.90;;;;;;;;;;5070975;28;20184;-62
2021/09/06 05:32:37;;;;;;;10.43;9.20;;;;;;;;;;5066619;28;20203;-62
2021/09/06 05:35:03;;;;;;;12.53;10.13;;;;;;;;;;5072902;28;20180;-62
2021/09/06 05:37:29;;;;;;;10.93;9.10;;;;;;;;;;5067845;28;20707;-64
2021/09/06 05:39:55;;;;;;;11.07;9.10;;;;;;;;;;5069109;28;20756;-63
2021/09/06 05:42:21;;;;;;;10.73;9.07;;;;;;;;;;5078971;28;20180;-64
2021/09/06 05:44:50;;;;;;;10.13;9.13;;;;;;;;;;5076998;28;20266;-63
2021/09/06 05:47:16;;;;;;;9.80;8.73;;;;;;;;;;5070535;28;20192;-63
2021/09/06 05:49:42;;;;;;;9.80;8.83;;;;;;;;;;5072003;28;20176;-62
2021/09/06 05:52:11;;;;;;;11.93;10.20;;;;;;;;;;5071180;28;20172;-62
2021/09/06 05:54:37;;;;;;;11.17;9.80;;;;;;;;;;5071376;28;20229;-63
2021/09/06 05:57:03;;;;;;;13.07;10.20;;;;;;;;;;5082690;28;20172;-62
2021/09/06 05:59:29;;;;;;;11.60;10.27;;;;;;;;;;5070321;28;20211;-62
2021/09/06 06:01:55;;;;;;;11.40;10.03;;;;;;;;;;5067392;28;20192;-63
2021/09/06 06:04:21;;;;;;;10.80;8.47;;;;;;;;;;5068849;28;20207;-62
2021/09/06 06:06:47;;;;;;;12.33;9.90;;;;;;;;;;5068105;28;20249;-62
2021/09/06 06:09:13;;;;;;;12.93;9.60;;;;;;;;;;5075104;28;20228;-62
2021/09/06 06:11:41;;;;;;;11.93;9.73;;;;;;;;;;5078119;28;20623;-62
2021/09/06 06:14:07;;;;;;;12.23;10.03;;;;;;;;;;5074286;28;20437;-63
2021/09/06 06:16:33;;;;;;;10.90;9.63;;;;;;;;;;5070701;28;20200;-62
2021/09/06 06:18:59;;;;;;;11.43;10.23;;;;;;;;;;5066584;28;20182;-62
2021/09/06 06:21:25;;;;;;;10.10;8.60;;;;;;;;;;5074788;28;20188;-62
2021/09/06 06:23:51;;;;;;;13.45;11.65;;;;;;;;;;5077545;28;20829;-60
2021/09/06 06:26:17;;;;;;;16.13;13.53;;;;;;;;;;5081868;28;20174;-60
2021/09/06 06:28:43;;;;;;;27.03;15.77;;;;;;;;;;5068118;28;20212;-59
2021/09/06 06:31:10;;;;;;;16.83;14.30;;;;;;;;;;5070163;28;20192;-59
2021/09/06 06:33:36;;;;;;;16.83;14.83;;;;;;;;;;5067487;28;20181;-61
2021/09/06 06:36:03;;;;;;;22.50;16.30;;;;;;;;;;5073184;28;20583;-60
2021/09/06 06:38:29;;;;;;;20.47;15.13;;;;;;;;;;5062627;28;20305;-60
2021/09/06 06:40:55;;;;;;;20.20;16.37;;;;;;;;;;5085449;28;20356;-61
2021/09/06 06:43:22;;;;;;;20.60;16.83;;;;;;;;;;5066458;28;20520;-60
2021/09/06 06:45:48;;;;;;;23.30;17.33;;;;;;;;;;5071304;28;20184;-60
2021/09/06 06:48:14;;;;;;;20.23;16.50;;;;;;;;;;5074598;28;20187;-60
2021/09/06 06:50:40;;;;;;;22.07;17.20;;;;;;;;;;5068042;28;20651;-60
2021/09/06 06:53:06;;;;;;;23.13;17.60;;;;;;;;;;5075348;28;20184;-62
2021/09/06 06:55:32;;;;;;;19.20;15.50;;;;;;;;;;5076356;28;20219;-59
2021/09/06 06:57:58;;;;;;;22.27;17.57;;;;;;;;;;5073588;28;20240;-60
2021/09/06 07:00:24;;;;;;;21.70;17.33;;;;;;;;;;5071817;28;20210;-60
2021/09/06 07:02:53;;;;;;;22.93;16.63;;;;;;;;;;5075524;28;20176;-60
2021/09/06 07:05:19;;;;;;;22.23;16.07;;;;;;;;;;5068521;28;20174;-60
2021/09/06 07:07:45;;;;;;;19.47;16.50;;;;;;;;;;5067417;28;20183;-60
2021/09/06 07:10:11;;;;;;;20.10;16.67;;;;;;;;;;5077878;28;20176;-61
2021/09/06 07:12:38;;;;;;;18.80;16.60;;;;;;;;;;5078688;28;20229;-60
2021/09/06 07:15:05;;;;;;;22.73;16.80;;;;;;;;;;5078342;28;20174;-60
2021/09/06 07:17:31;;;;;;;22.10;15.07;;;;;;;;;;5071350;28;20172;-60
2021/09/06 07:19:57;;;;;;;19.97;15.47;;;;;;;;;;5071941;28;20211;-62
2021/09/06 07:22:23;;;;;;;20.23;15.57;;;;;;;;;;5066843;28;20230;-60
2021/09/06 07:24:49;;;;;;;17.90;15.37;;;;;;;;;;5072109;28;20186;-60
2021/09/06 07:27:15;;;;;;;19.90;16.23;;;;;;;;;;5068586;28;20273;-60
2021/09/06 07:29:41;;;;;;;19.03;16.63;;;;;;;;;;5071718;28;20171;-60
2021/09/06 07:32:08;;;;;;;21.03;15.93;;;;;;;;;;5068181;28;20211;-61
2021/09/06 07:34:37;;;;;;;20.80;16.00;;;;;;;;;;5070678;28;20178;-61
2021/09/06 07:37:04;;;;;;;17.30;14.93;;;;;;;;;;5077910;28;20177;-60
2021/09/06 07:39:30;;;;;;;19.50;16.30;;;;;;;;;;5075987;28;20191;-60
2021/09/06 07:41:56;;;;;;;19.10;17.07;;;;;;;;;;5074924;28;20217;-60
2021/09/06 07:44:22;;;;;;;18.57;15.90;;;;;;;;;;5072350;28;20269;-61
2021/09/06 07:46:50;;;;;;;18.33;16.27;;;;;;;;;;5075809;28;20200;-59
2021/09/06 07:49:16;;;;;;;21.57;16.60;;;;;;;;;;5075028;28;20219;-60
2021/09/06 07:51:42;;;;;;;18.50;16.13;;;;;;;;;;5072924;28;20207;-60
2021/09/06 07:54:08;;;;;;;19.97;16.73;;;;;;;;;;5069727;28;20341;-59
2021/09/06 07:56:35;;;;;;;18.20;15.37;;;;;;;;;;5078431;28;20177;-59
2021/09/06 07:59:01;;;;;;;17.27;15.47;;;;;;;;;;5069420;28;20224;-59
2021/09/06 08:01:27;;;;;;;19.67;17.57;;;;;;;;;;5069558;28;20446;-61
2021/09/06 08:03:53;;;;;;;19.57;16.57;;;;;;;;;;5067848;28;20268;-61
2021/09/06 08:06:19;;;;;;;19.20;16.40;;;;;;;;;;5076140;28;20258;-59
2021/09/06 08:08:45;;;;;;;18.70;15.90;;;;;;;;;;5070120;28;20173;-59
2021/09/06 08:11:11;;;;;;;17.90;16.00;;;;;;;;;;5075992;28;20208;-60
2021/09/06 08:13:37;;;;;;;17.73;15.70;;;;;;;;;;5075622;28;20180;-61
2021/09/06 08:16:03;;;;;;;17.37;15.33;;;;;;;;;;5072988;28;20511;-60
2021/09/06 08:18:29;;;;;;;17.87;15.13;;;;;;;;;;5069576;28;20242;-59
2021/09/06 08:20:55;;;;;;;18.77;15.60;;;;;;;;;;5072926;28;20200;-60
2021/09/06 08:23:21;;;;;;;18.37;15.03;;;;;;;;;;5074245;28;20168;-61
2021/09/06 08:25:47;;;;;;;19.90;14.13;;;;;;;;;;5076766;28;20179;-60
2021/09/06 08:28:13;;;;;;;15.53;13.77;;;;;;;;;;5074727;28;20451;-60
2021/09/06 08:30:40;;;;;;;15.80;13.23;;;;;;;;;;5075330;28;20184;-61
2021/09/06 08:33:06;;;;;;;15.97;12.27;;;;;;;;;;5077573;28;20188;-60
2021/09/06 08:35:32;;;;;;;14.80;11.77;;;;;;;;;;5081809;28;20198;-60
2021/09/06 08:37:58;;;;;;;14.63;13.00;;;;;;;;;;5074814;28;20193;-61
2021/09/06 08:40:24;;;;;;;16.67;11.77;;;;;;;;;;5086945;28;20208;-60
2021/09/06 08:42:51;;;;;;;16.50;11.77;;;;;;;;;;5074432;28;20671;-61
2021/09/06 08:45:17;;;;;;;15.27;11.77;;;;;;;;;;5084514;28;20179;-60
2021/09/06 08:47:43;;;;;;;15.40;12.13;;;;;;;;;;5075362;28;20184;-62
2021/09/06 08:50:10;;;;;;;14.77;11.80;;;;;;;;;;5068080;28;20207;-60
2021/09/06 08:52:37;;;;;;;13.93;11.77;;;;;;;;;;5068641;28;20180;-59
2021/09/06 08:55:03;;;;;;;17.90;11.80;;;;;;;;;;5068167;28;20230;-60
2021/09/06 08:57:29;;;;;;;12.97;11.67;;;;;;;;;;5079996;28;20536;-60
2021/09/06 09:00:02;;;;;;;11.67;10.20;;;;;;;;;;5070229;28;20191;-60
2021/09/06 09:02:28;;;;;;;12.87;11.57;;;;;;;;;;5076879;28;20237;-61
2021/09/06 09:05:08;;;;;;;18.57;11.50;;;;;;;;;;5071909;28;20181;-61
2021/09/06 09:07:35;;;;;;;13.77;10.30;;;;;;;;;;5074164;28;20183;-61
2021/09/06 09:10:02;;;;;;;13.33;11.43;;;;;;;;;;5079169;28;20223;-61
2021/09/06 09:12:29;;;;;;;13.43;12.03;;;;;;;;;;5052093;28;20242;-61
2021/09/06 09:14:56;;;;;;;15.67;12.80;;;;;;;;;;5072543;28;20766;-60
2021/09/06 09:17:22;;;;;;;16.37;12.90;;;;;;;;;;5075983;28;20513;-61
2021/09/06 09:19:49;;;;;;;13.30;11.93;;;;;;;;;;5070905;28;20191;-63
2021/09/06 09:22:19;;;;;;;15.30;11.80;;;;;;;;;;5067612;28;20179;-60
2021/09/06 09:24:55;;;;;;;14.10;12.27;;;;;;;;;;5081264;28;20176;-60
2021/09/06 09:27:29;;;;;;;14.93;12.13;;;;;;;;;;5078364;28;20549;-61
2021/09/06 09:29:55;;;;;;;15.53;12.33;;;;;;;;;;5075288;28;20171;-60
2021/09/06 09:32:21;;;;;;;13.47;12.07;;;;;;;;;;5068691;28;20250;-60
2021/09/06 09:34:47;;;;;;;12.87;11.43;;;;;;;;;;5073722;28;20175;-61
2021/09/06 09:37:23;;;;;;;13.93;12.30;;;;;;;;;;5073993;28;20187;-60
2021/09/06 09:39:53;;;;;;;13.50;12.13;;;;;;;;;;5075188;28;20583;-61
2021/09/06 09:42:19;;;;;;;15.50;12.33;;;;;;;;;;5074786;28;20273;-61
2021/09/06 09:44:55;;;;;;;12.80;11.50;;;;;;;;;;5073956;28;20265;-61
2021/09/06 09:47:23;;;;;;;16.97;12.80;;;;;;;;;;5069541;28;20580;-61
2021/09/06 09:49:50;;;;;;;14.73;12.70;;;;;;;;;;5066556;28;20320;-62
2021/09/06 09:52:20;;;;;;;15.47;12.13;;;;;;;;;;5068968;28;20199;-61
2021/09/06 09:54:47;;;;;;;13.40;12.00;;;;;;;;;;5069149;28;20279;-61
2021/09/06 09:57:14;;;;;;;19.20;12.23;;;;;;;;;;5067677;28;20274;-63
2021/09/06 09:59:43;;;;;;;12.77;11.40;;;;;;;;;;5069518;28;20223;-61
2021/09/06 10:02:16;;;;;;;13.13;11.67;;;;;;;;;;5068624;28;20635;-61
2021/09/06 10:04:50;;;;;;;12.90;11.13;;;;;;;;;;5070418;28;20510;-62
2021/09/06 10:07:16;;;;;;;18.57;11.90;;;;;;;;;;5065969;28;20294;-61
2021/09/06 10:09:47;;;;;;;12.37;11.17;;;;;;;;;;5074384;28;20645;-61
2021/09/06 10:12:23;;;;;;;13.07;11.50;;;;;;;;;;5068101;28;20622;-61
2021/09/06 10:14:53;;;;;;;12.80;11.50;;;;;;;;;;5071558;28;20182;-61
2021/09/06 10:17:33;;;;;;;14.47;12.50;;;;;;;;;;5069523;28;20180;-63
2021/09/06 10:19:59;;;;;;;12.70;11.32;;;;;;;;;;5071434;28;20716;-62
2021/09/06 10:22:26;;;;;;;13.27;11.57;;;;;;;;;;5074064;28;20261;-62
2021/09/06 10:25:03;;;;;;;14.90;13.40;;;;;;;;;;5057558;28;20182;-61
2021/09/06 10:27:30;;;;;;;14.27;12.47;;;;;;;;;;5071231;28;20173;-62
2021/09/06 10:29:59;;;;;;;15.60;11.67;;;;;;;;;;5077247;28;20271;-62
2021/09/06 10:32:34;;;;;;;15.83;11.83;;;;;;;;;;5069472;28;20181;-61
2021/09/06 10:35:04;;;;;;;13.90;12.37;;;;;;;;;;5076249;28;20717;-63
2021/09/06 10:37:34;;;;;;;14.80;11.63;;;;;;;;;;5073391;28;20530;-64
2021/09/06 10:40:00;;;;;;;15.33;12.33;;;;;;;;;;5076289;28;20519;-62
2021/09/06 10:42:30;;;;;;;14.33;12.33;;;;;;;;;;5070896;28;20302;-61
2021/09/06 10:44:58;;;;;;;15.00;12.27;;;;;;;;;;5078897;28;20172;-62
2021/09/06 10:47:24;;;;;;;12.83;11.53;;;;;;;;;;5068590;28;20735;-61
2021/09/06 10:49:52;;;;;;;15.70;12.87;;;;;;;;;;5068132;28;20176;-62
2021/09/06 10:52:18;;;;;;;16.67;13.47;;;;;;;;;;5066747;28;20677;-61
2021/09/06 10:54:44;;;;;;;19.77;14.30;;;;;;;;;;5078343;28;20243;-61
2021/09/06 10:57:13;;;;;;;17.13;13.03;;;;;;;;;;5068712;28;20184;-63
2021/09/06 10:59:43;;;;;;;16.73;13.43;;;;;;;;;;5066018;28;20506;-61
2021/09/06 11:02:09;;;;;;;19.00;13.67;;;;;;;;;;5065947;28;20173;-61
2021/09/06 11:04:35;;;;;;;18.27;13.13;;;;;;;;;;5079368;28;20182;-62
2021/09/06 11:07:03;;;;;;;19.20;12.80;;;;;;;;;;5066727;28;20238;-61
2021/09/06 11:09:29;;;;;;;17.37;13.53;;;;;;;;;;5072197;28;20176;-60
2021/09/06 11:11:59;;;;;;;17.63;13.77;;;;;;;;;;5071468;28;20240;-61
2021/09/06 11:14:32;;;;;;;14.43;12.90;;;;;;;;;;5080300;28;20192;-61
2021/09/06 11:16:58;;;;;;;16.77;13.30;;;;;;;;;;5069813;28;20180;-61
2021/09/06 11:19:24;;;;;;;18.50;14.07;;;;;;;;;;5079585;28;20200;-61
2021/09/06 11:21:56;;;;;;;20.00;13.43;;;;;;;;;;5070882;28;20619;-61
2021/09/06 11:24:22;;;;;;;16.38;13.70;;;;;;;;;;5072876;28;20414;-61
2021/09/06 11:26:48;;;;;;;21.90;14.10;;;;;;;;;;5070646;28;20239;-61
2021/09/06 11:29:14;;;;;;;18.53;13.43;;;;;;;;;;5079519;28;20662;-61
2021/09/06 11:31:41;;;;;;;17.63;13.07;;;;;;;;;;5072588;28;20180;-62
2021/09/06 11:34:09;;;;;;;17.83;13.03;;;;;;;;;;5073563;28;20195;-61
2021/09/06 11:36:35;;;;;;;21.17;14.27;;;;;;;;;;5078476;28;20185;-61
2021/09/06 11:39:02;;;;;;;20.90;14.73;;;;;;;;;;5077176;28;20183;-61
2021/09/06 11:41:28;;;;;;;20.47;13.97;;;;;;;;;;5073774;28;20295;-61
2021/09/06 11:43:54;;;;;;;19.93;13.77;;;;;;;;;;5075835;28;20184;-62
2021/09/06 11:46:21;;;;;;;21.30;13.33;;;;;;;;;;5077067;28;20625;-61
2021/09/06 11:48:48;;;;;;;21.13;15.20;;;;;;;;;;5076530;28;20209;-61
2021/09/06 11:51:15;;;;;;;18.30;13.23;;;;;;;;;;5076671;28;20864;-61
2021/09/06 11:53:41;;;;;;;15.77;13.00;;;;;;;;;;5081252;28;20543;-62
2021/09/06 11:56:14;;;;;;;18.37;13.13;;;;;;;;;;5075040;28;20178;-62
2021/09/06 11:58:45;;;;;;;16.80;13.17;;;;;;;;;;5074019;28;20257;-62
2021/09/06 12:01:14;;;;;;;16.10;12.43;;;;;;;;;;5074604;28;20196;-62
2021/09/06 12:03:41;;;;;;;14.80;11.23;;;;;;;;;;5076486;28;20259;-62
2021/09/06 12:06:08;;;;;;;16.00;12.03;;;;;;;;;;5076161;28;20193;-63
2021/09/06 12:08:34;;;;;;;14.43;12.43;;;;;;;;;;5069470;28;20203;-62
2021/09/06 12:11:19;;;;;;;17.97;11.93;;;;;;;;;;5076159;28;20189;-62
2021/09/06 12:13:54;;;;;;;16.17;12.20;;;;;;;;;;5073151;28;20189;-62
2021/09/06 12:16:21;;;;;;;15.43;12.07;;;;;;;;;;5079579;28;20210;-63
2021/09/06 12:18:47;;;;;;;12.77;11.47;;;;;;;;;;5073983;28;20185;-63
2021/09/06 12:21:17;;;;;;;15.20;13.10;;;;;;;;;;5082068;28;20207;-62
2021/09/06 12:23:44;;;;;;;17.87;12.27;;;;;;;;;;5074363;28;20218;-62
2021/09/06 12:26:11;;;;;;;15.83;12.13;;;;;;;;;;5074862;28;20184;-62
2021/09/06 12:28:50;;;;;;;14.33;11.23;;;;;;;;;;5069097;28;20704;-64
2021/09/06 12:31:18;;;;;;;15.50;11.47;;;;;;;;;;5083268;28;20211;-63
2021/09/06 12:33:46;;;;;;;13.37;11.93;;;;;;;;;;5068039;28;20644;-62
2021/09/06 12:36:12;;;;;;;13.73;12.33;;;;;;;;;;5073245;28;20229;-63
2021/09/06 12:38:38;;;;;;;13.73;11.43;;;;;;;;;;5069889;28;20215;-62
2021/09/06 12:41:05;;;;;;;12.00;10.50;;;;;;;;;;5078504;28;20656;-62
2021/09/06 12:43:31;;;;;;;13.87;10.80;;;;;;;;;;5069927;28;20530;-62
2021/09/06 12:45:57;;;;;;;12.67;10.63;;;;;;;;;;5076154;28;20620;-63
2021/09/06 12:48:23;;;;;;;11.83;10.20;;;;;;;;;;5075113;28;20637;-63
2021/09/06 12:50:49;;;;;;;12.17;10.53;;;;;;;;;;5075865;28;20664;-63
2021/09/06 12:53:16;;;;;;;13.27;10.43;;;;;;;;;;5069096;28;20183;-63
2021/09/06 12:55:43;;;;;;;14.60;10.50;;;;;;;;;;5076504;28;20210;-63
2021/09/06 12:58:09;;;;;;;11.43;10.23;;;;;;;;;;5069223;28;20759;-63
2021/09/06 13:00:35;;;;;;;10.77;9.67;;;;;;;;;;5075677;28;20206;-63
2021/09/06 13:03:01;;;;;;;14.77;10.13;;;;;;;;;;5071149;28;20264;-62
2021/09/06 13:05:28;;;;;;;18.10;9.93;;;;;;;;;;5077194;28;20558;-64
2021/09/06 13:07:54;;;;;;;12.00;9.93;;;;;;;;;;5073680;28;20217;-62
2021/09/06 13:10:20;;;;;;;14.73;10.43;;;;;;;;;;5076277;28;20209;-62
2021/09/06 13:12:47;;;;;;;13.60;9.53;;;;;;;;;;5069260;28;20275;-63
2021/09/06 13:15:13;;;;;;;12.27;10.60;;;;;;;;;;5071690;28;20262;-63
2021/09/06 13:17:39;;;;;;;13.60;10.67;;;;;;;;;;5069449;28;20514;-63
2021/09/06 13:20:07;;;;;;;11.60;9.73;;;;;;;;;;5066503;28;20230;-62
2021/09/06 13:22:33;;;;;;;10.57;9.27;;;;;;;;;;5083359;28;20241;-64
2021/09/06 13:24:59;;;;;;;11.90;9.90;;;;;;;;;;5068239;28;20179;-63
2021/09/06 13:27:25;;;;;;;9.90;8.33;;;;;;;;;;5075610;28;20179;-63
2021/09/06 13:29:51;;;;;;;13.03;9.17;;;;;;;;;;5067767;28;20197;-62
2021/09/06 13:32:20;;;;;;;12.90;8.33;;;;;;;;;;5066308;28;20218;-62
2021/09/06 13:34:47;;;;;;;11.17;8.77;;;;;;;;;;5068771;28;20185;-67
2021/09/06 13:37:13;;;;;;;9.50;8.50;;;;;;;;;;5067205;28;20627;-64
2021/09/06 13:39:39;;;;;;;10.20;9.17;;;;;;;;;;5075006;28;20178;-63
2021/09/06 13:42:06;;;;;;;11.67;10.47;;;;;;;;;;5071221;28;20201;-62
2021/09/06 13:44:32;;;;;;;10.50;9.43;;;;;;;;;;5077029;28;20177;-64
2021/09/06 13:46:59;;;;;;;11.37;10.17;;;;;;;;;;5069749;28;20233;-63
2021/09/06 13:49:25;;;;;;;12.50;9.80;;;;;;;;;;5068230;28;20207;-63
2021/09/06 13:51:51;;;;;;;12.03;9.27;;;;;;;;;;5074340;28;20186;-63
2021/09/06 13:54:18;;;;;;;14.50;9.23;;;;;;;;;;5067394;28;20241;-64
2021/09/06 13:56:44;;;;;;;11.13;9.40;;;;;;;;;;5074914;28;20270;-64
2021/09/06 13:59:10;;;;;;;13.07;9.33;;;;;;;;;;5070896;28;20235;-63
2021/09/06 14:01:37;;;;;;;11.20;9.30;;;;;;;;;;5069068;28;20235;-63
2021/09/06 14:04:05;;;;;;;11.27;9.03;;;;;;;;;;5056888;28;20287;-65
2021/09/06 14:06:35;;;;;;;11.27;9.77;;;;;;;;;;5071031;28;20179;-63
2021/09/06 14:09:01;;;;;;;10.10;9.07;;;;;;;;;;5079601;28;20637;-64
2021/09/06 14:11:28;;;;;;;9.50;8.60;;;;;;;;;;5068655;28;20291;-63
2021/09/06 14:13:54;;;;;;;11.00;8.82;;;;;;;;;;5070153;28;21005;-65
2021/09/06 14:16:20;;;;;;;13.07;9.13;;;;;;;;;;5072200;28;20177;-63
2021/09/06 14:18:46;;;;;;;17.53;8.93;;;;;;;;;;5083118;28;20691;-63
2021/09/06 14:21:12;;;;;;;12.87;10.80;;;;;;;;;;5071252;28;20208;-63